EmailTwitter


Observations de surface / France / LFBO (07630)

Régions: Québec | Canada | États-Unis | Europe | France | UK | Elsewhere
Station
Affichage
Infos & localisation pour LFBO (07630) | Aide pour décoder les METARs

Observations prises le 2017-03-26 à 14H30 UTC à TOULOUSE/BLAGNAC, FR (LFBO)

Température: 19.0 Celsius

Point de rosée: 3.0 Celsius

Humidité relative: 35%

Vents: Est-sud-est à 19 km/h ou 10 noeuds.

Pression au niveau moyen de la mer: 101.60 kilopascals.

Observation METAR:

LFBO 261430Z AUTO 11010KT 080V140 CAVOK 19/03 Q1016 NOSIG=